sensor_id;sensor_type;location;lat;lon;timestamp;temperature;humidity
44833;DHT22;30569;51.252;9.830;2022-12-16T00:06:42;-10.30;99.90
44833;DHT22;30569;51.252;9.830;2022-12-16T00:11:34;-10.10;99.90
44833;DHT22;30569;51.252;9.830;2022-12-16T00:21:18;-10.30;99.90
44833;DHT22;30569;51.252;9.830;2022-12-16T00:23:44;-10.20;99.90
44833;DHT22;30569;51.252;9.830;2022-12-16T00:26:11;-10.10;99.90
44833;DHT22;30569;51.252;9.830;2022-12-16T00:28:37;-10.20;99.90
44833;DHT22;30569;51.252;9.830;2022-12-16T00:33:29;-10.60;99.90
44833;DHT22;30569;51.252;9.830;2022-12-16T00:38:22;-10.30;99.90
44833;DHT22;30569;51.252;9.830;2022-12-16T00:40:49;-10.40;99.90
44833;DHT22;30569;51.252;9.830;2022-12-16T00:48:07;-10.30;99.90
44833;DHT22;30569;51.252;9.830;2022-12-16T00:57:50;-10.30;99.90
44833;DHT22;30569;51.252;9.830;2022-12-16T01:00:17;-10.40;99.90
44833;DHT22;30569;51.252;9.830;2022-12-16T01:02:45;-10.10;99.90
44833;DHT22;30569;51.252;9.830;2022-12-16T01:05:13;-10.50;99.90
44833;DHT22;30569;51.252;9.830;2022-12-16T01:07:42;-10.30;99.90
44833;DHT22;30569;51.252;9.830;2022-12-16T01:10:09;-10.40;99.90
44833;DHT22;30569;51.252;9.830;2022-12-16T01:12:35;-10.50;99.90
44833;DHT22;30569;51.252;9.830;2022-12-16T01:15:03;-10.60;99.90
44833;DHT22;30569;51.252;9.830;2022-12-16T01:17:29;-10.30;99.90
44833;DHT22;30569;51.252;9.830;2022-12-16T01:22:21;-10.20;99.90
44833;DHT22;30569;51.252;9.830;2022-12-16T01:24:47;-10.30;99.90
44833;DHT22;30569;51.252;9.830;2022-12-16T01:29:39;-10.10;99.90
44833;DHT22;30569;51.252;9.830;2022-12-16T01:32:05;-10.10;99.90
44833;DHT22;30569;51.252;9.830;2022-12-16T01:36:57;-10.10;99.90
44833;DHT22;30569;51.252;9.830;2022-12-16T01:39:23;-10.00;99.90
44833;DHT22;30569;51.252;9.830;2022-12-16T01:44:22;-9.90;99.90
44833;DHT22;30569;51.252;9.830;2022-12-16T01:46:57;-10.10;99.90
44833;DHT22;30569;51.252;9.830;2022-12-16T01:51:51;-10.50;99.90
44833;DHT22;30569;51.252;9.830;2022-12-16T01:54:27;-10.90;99.90
44833;DHT22;30569;51.252;9.830;2022-12-16T01:57:00;-10.70;99.90
44833;DHT22;30569;51.252;9.830;2022-12-16T01:59:28;-10.50;99.90
44833;DHT22;30569;51.252;9.830;2022-12-16T02:01:54;-10.40;99.90
44833;DHT22;30569;51.252;9.830;2022-12-16T02:04:20;-10.10;99.90
44833;DHT22;30569;51.252;9.830;2022-12-16T02:06:46;-10.30;99.90
44833;DHT22;30569;51.252;9.830;2022-12-16T02:09:13;-10.20;99.90
44833;DHT22;30569;51.252;9.830;2022-12-16T02:17:37;-10.30;99.90
44833;DHT22;30569;51.252;9.830;2022-12-16T02:28:12;-10.00;99.90
44833;DHT22;30569;51.252;9.830;2022-12-16T02:33:51;-9.90;99.90
44833;DHT22;30569;51.252;9.830;2022-12-16T02:39:03;-10.40;99.90
44833;DHT22;30569;51.252;9.830;2022-12-16T02:42:49;-10.30;99.90
44833;DHT22;30569;51.252;9.830;2022-12-16T02:44:52;-10.20;99.90
44833;DHT22;30569;51.252;9.830;2022-12-16T02:47:19;-9.90;99.90
44833;DHT22;30569;51.252;9.830;2022-12-16T02:49:48;-9.70;99.90
44833;DHT22;30569;51.252;9.830;2022-12-16T02:52:16;-9.50;99.90
44833;DHT22;30569;51.252;9.830;2022-12-16T02:54:43;-9.80;99.90
44833;DHT22;30569;51.252;9.830;2022-12-16T02:57:29;-9.70;99.90
44833;DHT22;30569;51.252;9.830;2022-12-16T03:00:10;-10.00;99.90
44833;DHT22;30569;51.252;9.830;2022-12-16T03:07:41;-9.70;99.90
44833;DHT22;30569;51.252;9.830;2022-12-16T03:10:11;-9.50;99.90
44833;DHT22;30569;51.252;9.830;2022-12-16T03:12:40;-9.60;99.90
44833;DHT22;30569;51.252;9.830;2022-12-16T03:15:07;-9.80;99.90
44833;DHT22;30569;51.252;9.830;2022-12-16T03:17:35;-10.20;99.90
44833;DHT22;30569;51.252;9.830;2022-12-16T03:20:11;-10.00;99.90
44833;DHT22;30569;51.252;9.830;2022-12-16T03:22:43;-10.10;99.90
44833;DHT22;30569;51.252;9.830;2022-12-16T03:25:10;-9.90;99.90
44833;DHT22;30569;51.252;9.830;2022-12-16T03:30:28;-10.30;99.90
44833;DHT22;30569;51.252;9.830;2022-12-16T03:33:09;-9.60;99.90
44833;DHT22;30569;51.252;9.830;2022-12-16T03:35:40;-9.60;99.90
44833;DHT22;30569;51.252;9.830;2022-12-16T03:38:09;-10.10;99.90
44833;DHT22;30569;51.252;9.830;2022-12-16T03:40:37;-10.20;99.90
44833;DHT22;30569;51.252;9.830;2022-12-16T03:43:04;-10.20;99.90
44833;DHT22;30569;51.252;9.830;2022-12-16T03:45:35;-10.20;99.90
44833;DHT22;30569;51.252;9.830;2022-12-16T03:48:01;-10.20;99.90
44833;DHT22;30569;51.252;9.830;2022-12-16T03:50:30;-10.30;99.90
44833;DHT22;30569;51.252;9.830;2022-12-16T03:52:55;-10.30;99.90
44833;DHT22;30569;51.252;9.830;2022-12-16T04:02:40;-10.40;99.90
44833;DHT22;30569;51.252;9.830;2022-12-16T04:07:32;-10.70;99.90
44833;DHT22;30569;51.252;9.830;2022-12-16T04:09:59;-10.30;99.90
44833;DHT22;30569;51.252;9.830;2022-12-16T04:20:48;-10.60;99.90
44833;DHT22;30569;51.252;9.830;2022-12-16T04:23:34;-10.60;99.90
44833;DHT22;30569;51.252;9.830;2022-12-16T04:26:19;-10.20;99.90
44833;DHT22;30569;51.252;9.830;2022-12-16T04:31:11;-10.50;99.90
44833;DHT22;30569;51.252;9.830;2022-12-16T04:36:21;-10.90;99.90
44833;DHT22;30569;51.252;9.830;2022-12-16T04:39:06;-11.00;99.90
44833;DHT22;30569;51.252;9.830;2022-12-16T04:41:54;-10.70;99.90
44833;DHT22;30569;51.252;9.830;2022-12-16T04:44:38;-10.90;99.90
44833;DHT22;30569;51.252;9.830;2022-12-16T04:47:23;-11.10;99.90
44833;DHT22;30569;51.252;9.830;2022-12-16T04:50:07;-10.70;99.90
44833;DHT22;30569;51.252;9.830;2022-12-16T04:52:52;-10.40;99.90
44833;DHT22;30569;51.252;9.830;2022-12-16T04:55:37;-10.60;99.90
44833;DHT22;30569;51.252;9.830;2022-12-16T05:01:06;-10.80;99.90
44833;DHT22;30569;51.252;9.830;2022-12-16T05:03:50;-10.60;99.90
44833;DHT22;30569;51.252;9.830;2022-12-16T05:06:34;-10.60;99.90
44833;DHT22;30569;51.252;9.830;2022-12-16T05:12:03;-10.60;99.90
44833;DHT22;30569;51.252;9.830;2022-12-16T05:14:47;-10.10;99.90
44833;DHT22;30569;51.252;9.830;2022-12-16T05:17:31;-11.20;99.90
44833;DHT22;30569;51.252;9.830;2022-12-16T05:23:00;-10.80;99.90
44833;DHT22;30569;51.252;9.830;2022-12-16T05:25:44;-11.00;99.90
44833;DHT22;30569;51.252;9.830;2022-12-16T05:31:13;-11.00;99.90
44833;DHT22;30569;51.252;9.830;2022-12-16T05:36:41;-10.70;99.90
44833;DHT22;30569;51.252;9.830;2022-12-16T05:44:55;-10.70;99.90
44833;DHT22;30569;51.252;9.830;2022-12-16T05:50:25;-10.60;99.90
44833;DHT22;30569;51.252;9.830;2022-12-16T05:56:14;-11.20;99.90
44833;DHT22;30569;51.252;9.830;2022-12-16T05:58:58;-10.80;99.90
44833;DHT22;30569;51.252;9.830;2022-12-16T06:12:45;-10.80;99.90
44833;DHT22;30569;51.252;9.830;2022-12-16T06:16:04;-10.80;99.90
44833;DHT22;30569;51.252;9.830;2022-12-16T06:29:47;-11.10;99.90
44833;DHT22;30569;51.252;9.830;2022-12-16T06:32:31;-11.00;99.90
44833;DHT22;30569;51.252;9.830;2022-12-16T06:37:59;-10.60;99.90
44833;DHT22;30569;51.252;9.830;2022-12-16T06:40:43;-10.90;99.90
44833;DHT22;30569;51.252;9.830;2022-12-16T06:43:27;-11.00;99.90
44833;DHT22;30569;51.252;9.830;2022-12-16T06:46:11;-10.70;99.90
44833;DHT22;30569;51.252;9.830;2022-12-16T06:48:56;-10.90;99.90
44833;DHT22;30569;51.252;9.830;2022-12-16T06:51:42;-10.70;99.90
44833;DHT22;30569;51.252;9.830;2022-12-16T06:54:26;-10.60;99.90
44833;DHT22;30569;51.252;9.830;2022-12-16T06:57:10;-10.20;99.90
44833;DHT22;30569;51.252;9.830;2022-12-16T06:59:54;-10.10;99.90
44833;DHT22;30569;51.252;9.830;2022-12-16T07:02:38;-10.20;99.90
44833;DHT22;30569;51.252;9.830;2022-12-16T07:05:22;-10.00;99.90
44833;DHT22;30569;51.252;9.830;2022-12-16T07:08:06;-9.80;99.90
44833;DHT22;30569;51.252;9.830;2022-12-16T07:10:50;-9.70;99.90
44833;DHT22;30569;51.252;9.830;2022-12-16T07:13:34;-9.50;99.90
44833;DHT22;30569;51.252;9.830;2022-12-16T07:21:48;-8.90;99.90
44833;DHT22;30569;51.252;9.830;2022-12-16T07:24:32;-9.00;99.90
44833;DHT22;30569;51.252;9.830;2022-12-16T07:27:16;-9.10;99.90
44833;DHT22;30569;51.252;9.830;2022-12-16T07:32:49;-8.70;99.90
44833;DHT22;30569;51.252;9.830;2022-12-16T07:38:18;-8.80;99.90
44833;DHT22;30569;51.252;9.830;2022-12-16T07:41:02;-8.70;99.90
44833;DHT22;30569;51.252;9.830;2022-12-16T07:43:45;-8.80;99.90
44833;DHT22;30569;51.252;9.830;2022-12-16T07:49:14;-8.40;99.90
44833;DHT22;30569;51.252;9.830;2022-12-16T07:51:58;-8.40;99.90
44833;DHT22;30569;51.252;9.830;2022-12-16T07:54:42;-8.30;99.90
44833;DHT22;30569;51.252;9.830;2022-12-16T08:00:11;-8.00;99.90
44833;DHT22;30569;51.252;9.830;2022-12-16T08:02:56;-7.90;99.90
44833;DHT22;30569;51.252;9.830;2022-12-16T08:05:40;-7.60;99.90
44833;DHT22;30569;51.252;9.830;2022-12-16T08:08:26;-7.50;99.90
44833;DHT22;30569;51.252;9.830;2022-12-16T08:11:10;-7.50;99.90
44833;DHT22;30569;51.252;9.830;2022-12-16T08:13:54;-7.30;99.90
44833;DHT22;30569;51.252;9.830;2022-12-16T08:16:38;-7.00;99.90
44833;DHT22;30569;51.252;9.830;2022-12-16T08:19:22;-6.60;99.90
44833;DHT22;30569;51.252;9.830;2022-12-16T08:22:07;-6.60;99.90
44833;DHT22;30569;51.252;9.830;2022-12-16T08:24:51;-6.30;99.90
44833;DHT22;30569;51.252;9.830;2022-12-16T08:27:35;-6.20;99.90
44833;DHT22;30569;51.252;9.830;2022-12-16T08:30:19;-6.20;99.90
44833;DHT22;30569;51.252;9.830;2022-12-16T08:33:04;-6.00;99.90
44833;DHT22;30569;51.252;9.830;2022-12-16T08:35:48;-6.00;99.90
44833;DHT22;30569;51.252;9.830;2022-12-16T08:41:17;-5.60;99.90
44833;DHT22;30569;51.252;9.830;2022-12-16T08:44:01;-5.60;99.90
44833;DHT22;30569;51.252;9.830;2022-12-16T08:46:45;-5.10;99.90
44833;DHT22;30569;51.252;9.830;2022-12-16T08:49:29;-5.30;99.90
44833;DHT22;30569;51.252;9.830;2022-12-16T08:52:14;-4.90;99.90
44833;DHT22;30569;51.252;9.830;2022-12-16T08:54:58;-5.00;99.90
44833;DHT22;30569;51.252;9.830;2022-12-16T09:00:26;-4.90;99.90
44833;DHT22;30569;51.252;9.830;2022-12-16T09:03:10;-4.90;99.90
44833;DHT22;30569;51.252;9.830;2022-12-16T09:05:58;-4.80;99.90
44833;DHT22;30569;51.252;9.830;2022-12-16T09:08:41;-5.10;99.90
44833;DHT22;30569;51.252;9.830;2022-12-16T09:11:46;-5.30;99.90
44833;DHT22;30569;51.252;9.830;2022-12-16T09:19:59;-4.90;99.90
44833;DHT22;30569;51.252;9.830;2022-12-16T09:22:43;-5.00;99.90
44833;DHT22;30569;51.252;9.830;2022-12-16T09:25:27;-4.60;99.90
44833;DHT22;30569;51.252;9.830;2022-12-16T09:28:31;-3.40;99.90
44833;DHT22;30569;51.252;9.830;2022-12-16T09:31:16;-3.40;99.90
44833;DHT22;30569;51.252;9.830;2022-12-16T09:34:00;-3.10;99.90
44833;DHT22;30569;51.252;9.830;2022-12-16T09:36:44;-3.60;99.90
44833;DHT22;30569;51.252;9.830;2022-12-16T09:39:28;-3.60;99.90
44833;DHT22;30569;51.252;9.830;2022-12-16T09:45:22;-3.40;99.90
44833;DHT22;30569;51.252;9.830;2022-12-16T09:48:45;-3.20;99.90
44833;DHT22;30569;51.252;9.830;2022-12-16T09:51:33;-3.00;99.90
44833;DHT22;30569;51.252;9.830;2022-12-16T09:54:19;-2.80;99.90
44833;DHT22;30569;51.252;9.830;2022-12-16T09:57:07;-2.70;99.90
44833;DHT22;30569;51.252;9.830;2022-12-16T09:59:56;-2.70;99.90
44833;DHT22;30569;51.252;9.830;2022-12-16T10:02:42;-2.30;99.90
44833;DHT22;30569;51.252;9.830;2022-12-16T10:05:57;-2.20;99.90
44833;DHT22;30569;51.252;9.830;2022-12-16T10:08:45;-2.10;99.90
44833;DHT22;30569;51.252;9.830;2022-12-16T10:11:59;-2.00;99.90
44833;DHT22;30569;51.252;9.830;2022-12-16T10:15:03;-1.80;99.90
44833;DHT22;30569;51.252;9.830;2022-12-16T10:17:53;-1.80;99.90
44833;DHT22;30569;51.252;9.830;2022-12-16T10:20:50;-1.60;99.90
44833;DHT22;30569;51.252;9.830;2022-12-16T10:26:51;-1.40;99.90
44833;DHT22;30569;51.252;9.830;2022-12-16T10:29:41;-1.70;99.90
44833;DHT22;30569;51.252;9.830;2022-12-16T10:32:43;-1.10;99.90
44833;DHT22;30569;51.252;9.830;2022-12-16T10:35:56;-1.00;99.90
44833;DHT22;30569;51.252;9.830;2022-12-16T10:38:56;-1.20;99.90
44833;DHT22;30569;51.252;9.830;2022-12-16T10:41:47;-1.20;99.90
44833;DHT22;30569;51.252;9.830;2022-12-16T10:44:36;-1.10;99.90
44833;DHT22;30569;51.252;9.830;2022-12-16T10:47:21;-1.10;99.90
44833;DHT22;30569;51.252;9.830;2022-12-16T10:53:01;-1.00;99.90
44833;DHT22;30569;51.252;9.830;2022-12-16T10:59:03;-0.50;99.90
44833;DHT22;30569;51.252;9.830;2022-12-16T11:01:59;-0.30;99.90
44833;DHT22;30569;51.252;9.830;2022-12-16T11:04:45;-0.30;99.90
44833;DHT22;30569;51.252;9.830;2022-12-16T11:16:29;-0.10;99.90
44833;DHT22;30569;51.252;9.830;2022-12-16T11:22:09;-0.20;99.90
44833;DHT22;30569;51.252;9.830;2022-12-16T11:31:02;-0.80;99.90
44833;DHT22;30569;51.252;9.830;2022-12-16T11:33:48;-0.30;99.90
44833;DHT22;30569;51.252;9.830;2022-12-16T11:36:38;-0.20;99.90
44833;DHT22;30569;51.252;9.830;2022-12-16T11:39:25;-0.20;99.90
44833;DHT22;30569;51.252;9.830;2022-12-16T11:42:20;-0.40;99.90
44833;DHT22;30569;51.252;9.830;2022-12-16T11:45:10;-0.40;99.90
44833;DHT22;30569;51.252;9.830;2022-12-16T11:48:01;-0.60;99.90
44833;DHT22;30569;51.252;9.830;2022-12-16T11:50:57;-0.90;99.90
44833;DHT22;30569;51.252;9.830;2022-12-16T11:56:48;-0.80;99.90
44833;DHT22;30569;51.252;9.830;2022-12-16T11:59:41;-0.70;99.90
44833;DHT22;30569;51.252;9.830;2022-12-16T12:02:32;-0.60;99.90
44833;DHT22;30569;51.252;9.830;2022-12-16T12:05:21;-0.40;99.90
44833;DHT22;30569;51.252;9.830;2022-12-16T12:11:31;0.00;99.90
44833;DHT22;30569;51.252;9.830;2022-12-16T12:14:34;0.00;99.90
44833;DHT22;30569;51.252;9.830;2022-12-16T12:17:40;-0.80;99.90
44833;DHT22;30569;51.252;9.830;2022-12-16T12:26:36;-0.80;99.90
44833;DHT22;30569;51.252;9.830;2022-12-16T12:29:49;-1.10;99.90
44833;DHT22;30569;51.252;9.830;2022-12-16T12:35:50;-1.20;99.90
44833;DHT22;30569;51.252;9.830;2022-12-16T12:38:55;-1.20;99.90
44833;DHT22;30569;51.252;9.830;2022-12-16T12:48:01;-1.50;99.90
44833;DHT22;30569;51.252;9.830;2022-12-16T12:51:05;-1.70;99.90
44833;DHT22;30569;51.252;9.830;2022-12-16T12:54:07;-2.00;99.90
44833;DHT22;30569;51.252;9.830;2022-12-16T12:56:53;-2.30;99.90
44833;DHT22;30569;51.252;9.830;2022-12-16T13:00:04;-2.30;99.90
44833;DHT22;30569;51.252;9.830;2022-12-16T13:03:03;-2.20;99.90
44833;DHT22;30569;51.252;9.830;2022-12-16T13:05:49;-2.10;99.90
44833;DHT22;30569;51.252;9.830;2022-12-16T13:11:21;-1.20;99.90
44833;DHT22;30569;51.252;9.830;2022-12-16T13:17:14;-1.70;99.90
44833;DHT22;30569;51.252;9.830;2022-12-16T13:19:58;-1.50;99.90
44833;DHT22;30569;51.252;9.830;2022-12-16T13:22:43;-1.40;99.90
44833;DHT22;30569;51.252;9.830;2022-12-16T13:31:09;-1.00;99.90
44833;DHT22;30569;51.252;9.830;2022-12-16T13:33:54;-0.90;99.90
44833;DHT22;30569;51.252;9.830;2022-12-16T13:36:39;-0.90;99.90
44833;DHT22;30569;51.252;9.830;2022-12-16T13:39:26;-0.60;99.90
44833;DHT22;30569;51.252;9.830;2022-12-16T13:45:43;-0.60;99.90
44833;DHT22;30569;51.252;9.830;2022-12-16T13:48:47;-0.40;99.90
44833;DHT22;30569;51.252;9.830;2022-12-16T13:57:21;-0.30;99.90
44833;DHT22;30569;51.252;9.830;2022-12-16T14:00:18;-0.50;99.90
44833;DHT22;30569;51.252;9.830;2022-12-16T14:03:20;-0.50;99.90
44833;DHT22;30569;51.252;9.830;2022-12-16T14:06:10;-1.10;99.90
44833;DHT22;30569;51.252;9.830;2022-12-16T14:08:57;-1.20;99.90
44833;DHT22;30569;51.252;9.830;2022-12-16T14:11:59;-0.80;99.90
44833;DHT22;30569;51.252;9.830;2022-12-16T14:14:59;-1.40;99.90
44833;DHT22;30569;51.252;9.830;2022-12-16T14:17:59;-1.70;99.90
44833;DHT22;30569;51.252;9.830;2022-12-16T14:20:49;-1.10;99.90
44833;DHT22;30569;51.252;9.830;2022-12-16T14:23:45;-1.40;99.90
44833;DHT22;30569;51.252;9.830;2022-12-16T14:26:34;-1.20;99.90
44833;DHT22;30569;51.252;9.830;2022-12-16T14:29:37;-1.60;99.90
44833;DHT22;30569;51.252;9.830;2022-12-16T14:32:31;-1.80;99.90
44833;DHT22;30569;51.252;9.830;2022-12-16T14:35:28;-2.10;99.90
44833;DHT22;30569;51.252;9.830;2022-12-16T14:38:20;-2.10;99.90
44833;DHT22;30569;51.252;9.830;2022-12-16T14:41:09;-2.50;99.90
44833;DHT22;30569;51.252;9.830;2022-12-16T14:43:54;-2.50;99.90
44833;DHT22;30569;51.252;9.830;2022-12-16T14:46:38;-2.70;99.90
44833;DHT22;30569;51.252;9.830;2022-12-16T14:49:27;-2.90;99.90
44833;DHT22;30569;51.252;9.830;2022-12-16T14:52:21;-2.90;99.90
44833;DHT22;30569;51.252;9.830;2022-12-16T14:55:28;-3.00;99.90
44833;DHT22;30569;51.252;9.830;2022-12-16T14:58:15;-3.50;99.90
44833;DHT22;30569;51.252;9.830;2022-12-16T15:01:21;-3.60;99.90
44833;DHT22;30569;51.252;9.830;2022-12-16T15:04:18;-4.00;99.90
44833;DHT22;30569;51.252;9.830;2022-12-16T15:07:05;-4.20;99.90
44833;DHT22;30569;51.252;9.830;2022-12-16T15:09:53;-4.30;99.90
44833;DHT22;30569;51.252;9.830;2022-12-16T15:12:41;-4.60;99.90
44833;DHT22;30569;51.252;9.830;2022-12-16T15:15:32;-5.10;99.90
44833;DHT22;30569;51.252;9.830;2022-12-16T15:18:35;-5.30;99.90
44833;DHT22;30569;51.252;9.830;2022-12-16T15:24:16;-4.90;99.90
44833;DHT22;30569;51.252;9.830;2022-12-16T15:27:21;-5.10;99.90
44833;DHT22;30569;51.252;9.830;2022-12-16T15:30:43;-5.30;99.90
44833;DHT22;30569;51.252;9.830;2022-12-16T15:33:30;-5.30;99.90
44833;DHT22;30569;51.252;9.830;2022-12-16T15:39:21;-5.40;99.90
44833;DHT22;30569;51.252;9.830;2022-12-16T15:45:02;-5.70;99.90
44833;DHT22;30569;51.252;9.830;2022-12-16T15:47:49;-5.80;99.90
44833;DHT22;30569;51.252;9.830;2022-12-16T15:50:34;-5.90;99.90
44833;DHT22;30569;51.252;9.830;2022-12-16T15:53:32;-6.40;99.90
44833;DHT22;30569;51.252;9.830;2022-12-16T15:56:21;-6.40;99.90
44833;DHT22;30569;51.252;9.830;2022-12-16T15:59:23;-6.00;99.90
44833;DHT22;30569;51.252;9.830;2022-12-16T16:02:34;-6.20;99.90
44833;DHT22;30569;51.252;9.830;2022-12-16T16:05:21;-6.20;99.90
44833;DHT22;30569;51.252;9.830;2022-12-16T16:08:06;-6.30;99.90
44833;DHT22;30569;51.252;9.830;2022-12-16T16:13:35;-6.30;99.90
44833;DHT22;30569;51.252;9.830;2022-12-16T16:16:19;-6.20;99.90
44833;DHT22;30569;51.252;9.830;2022-12-16T16:19:15;-6.50;99.90
44833;DHT22;30569;51.252;9.830;2022-12-16T16:22:04;-6.60;99.90
44833;DHT22;30569;51.252;9.830;2022-12-16T16:27:33;-6.60;99.90
44833;DHT22;30569;51.252;9.830;2022-12-16T16:30:16;-6.60;99.90
44833;DHT22;30569;51.252;9.830;2022-12-16T16:33:01;-7.10;99.90
44833;DHT22;30569;51.252;9.830;2022-12-16T16:35:45;-6.70;99.90
44833;DHT22;30569;51.252;9.830;2022-12-16T16:38:29;-6.90;99.90
44833;DHT22;30569;51.252;9.830;2022-12-16T16:41:14;-7.10;99.90
44833;DHT22;30569;51.252;9.830;2022-12-16T16:43:58;-7.00;99.90
44833;DHT22;30569;51.252;9.830;2022-12-16T16:46:43;-7.00;99.90
44833;DHT22;30569;51.252;9.830;2022-12-16T16:49:34;-6.90;99.90
44833;DHT22;30569;51.252;9.830;2022-12-16T16:52:21;-7.10;99.90
44833;DHT22;30569;51.252;9.830;2022-12-16T16:55:06;-7.00;99.90
44833;DHT22;30569;51.252;9.830;2022-12-16T16:57:50;-6.90;99.90
44833;DHT22;30569;51.252;9.830;2022-12-16T17:03:19;-7.30;99.90
44833;DHT22;30569;51.252;9.830;2022-12-16T17:06:04;-7.10;99.90
44833;DHT22;30569;51.252;9.830;2022-12-16T17:08:48;-7.50;99.90
44833;DHT22;30569;51.252;9.830;2022-12-16T17:11:32;-7.40;99.90
44833;DHT22;30569;51.252;9.830;2022-12-16T17:14:19;-7.50;99.90
44833;DHT22;30569;51.252;9.830;2022-12-16T17:17:03;-7.50;99.90
44833;DHT22;30569;51.252;9.830;2022-12-16T17:19:47;-7.40;99.90
44833;DHT22;30569;51.252;9.830;2022-12-16T17:22:32;-7.50;99.90
44833;DHT22;30569;51.252;9.830;2022-12-16T17:25:17;-7.50;99.90
44833;DHT22;30569;51.252;9.830;2022-12-16T17:28:01;-7.30;99.90
44833;DHT22;30569;51.252;9.830;2022-12-16T17:39:03;-7.30;99.90
44833;DHT22;30569;51.252;9.830;2022-12-16T17:44:33;-7.00;99.90
44833;DHT22;30569;51.252;9.830;2022-12-16T17:47:18;-6.90;99.90
44833;DHT22;30569;51.252;9.830;2022-12-16T17:50:03;-6.90;99.90
44833;DHT22;30569;51.252;9.830;2022-12-16T17:55:33;-7.30;99.90
44833;DHT22;30569;51.252;9.830;2022-12-16T17:58:17;-7.00;99.90
44833;DHT22;30569;51.252;9.830;2022-12-16T18:01:07;-6.90;99.90
44833;DHT22;30569;51.252;9.830;2022-12-16T18:12:15;-6.90;99.90
44833;DHT22;30569;51.252;9.830;2022-12-16T18:17:47;-7.10;99.90
44833;DHT22;30569;51.252;9.830;2022-12-16T18:26:07;-7.40;99.90
44833;DHT22;30569;51.252;9.830;2022-12-16T18:34:21;-7.60;99.90
44833;DHT22;30569;51.252;9.830;2022-12-16T18:37:05;-7.60;99.90
44833;DHT22;30569;51.252;9.830;2022-12-16T18:39:49;-7.10;99.90
44833;DHT22;30569;51.252;9.830;2022-12-16T18:42:51;-7.70;99.90
44833;DHT22;30569;51.252;9.830;2022-12-16T18:48:19;-7.80;99.90
44833;DHT22;30569;51.252;9.830;2022-12-16T18:51:03;-7.80;99.90
44833;DHT22;30569;51.252;9.830;2022-12-16T18:53:48;-7.90;99.90
44833;DHT22;30569;51.252;9.830;2022-12-16T19:04:46;-8.60;99.90
44833;DHT22;30569;51.252;9.830;2022-12-16T19:10:14;-8.30;99.90
44833;DHT22;30569;51.252;9.830;2022-12-16T19:15:56;-8.40;99.90
44833;DHT22;30569;51.252;9.830;2022-12-16T19:18:40;-8.20;99.90
44833;DHT22;30569;51.252;9.830;2022-12-16T19:24:09;-8.20;99.90
44833;DHT22;30569;51.252;9.830;2022-12-16T20:17:08;-8.80;99.90
44833;DHT22;30569;51.252;9.830;2022-12-16T21:10:24;-9.10;99.90
44833;DHT22;30569;51.252;9.830;2022-12-16T21:13:12;-9.20;99.90
44833;DHT22;30569;51.252;9.830;2022-12-16T21:15:58;-9.20;99.90
44833;DHT22;30569;51.252;9.830;2022-12-16T21:18:42;-9.50;99.90
44833;DHT22;30569;51.252;9.830;2022-12-16T21:21:27;-9.30;99.90
44833;DHT22;30569;51.252;9.830;2022-12-16T21:26:55;-9.60;99.90
44833;DHT22;30569;51.252;9.830;2022-12-16T21:29:39;-9.70;99.90
44833;DHT22;30569;51.252;9.830;2022-12-16T21:32:24;-9.60;99.90
44833;DHT22;30569;51.252;9.830;2022-12-16T21:35:08;-9.60;99.90
44833;DHT22;30569;51.252;9.830;2022-12-16T21:40:37;-9.70;99.90
44833;DHT22;30569;51.252;9.830;2022-12-16T21:43:21;-9.50;99.90
44833;DHT22;30569;51.252;9.830;2022-12-16T21:48:49;-9.50;99.90
44833;DHT22;30569;51.252;9.830;2022-12-16T21:54:19;-9.40;99.90
44833;DHT22;30569;51.252;9.830;2022-12-16T21:57:03;-9.60;99.90
44833;DHT22;30569;51.252;9.830;2022-12-16T21:59:49;-9.50;99.90
44833;DHT22;30569;51.252;9.830;2022-12-16T22:02:33;-9.50;99.90
44833;DHT22;30569;51.252;9.830;2022-12-16T22:05:22;-9.20;99.90
44833;DHT22;30569;51.252;9.830;2022-12-16T22:08:08;-9.50;99.90
44833;DHT22;30569;51.252;9.830;2022-12-16T22:10:53;-9.20;99.90
44833;DHT22;30569;51.252;9.830;2022-12-16T22:13:37;-9.70;99.90
44833;DHT22;30569;51.252;9.830;2022-12-16T22:16:21;-9.50;99.90
44833;DHT22;30569;51.252;9.830;2022-12-16T22:19:06;-9.40;99.90
44833;DHT22;30569;51.252;9.830;2022-12-16T22:24:34;-9.30;99.90
44833;DHT22;30569;51.252;9.830;2022-12-16T22:30:04;-9.20;99.90
44833;DHT22;30569;51.252;9.830;2022-12-16T22:32:48;-9.00;99.90
44833;DHT22;30569;51.252;9.830;2022-12-16T22:35:32;-8.90;99.90
44833;DHT22;30569;51.252;9.830;2022-12-16T22:38:17;-8.70;99.90
44833;DHT22;30569;51.252;9.830;2022-12-16T22:41:01;-8.60;99.90
44833;DHT22;30569;51.252;9.830;2022-12-16T22:43:45;-8.60;99.90
44833;DHT22;30569;51.252;9.830;2022-12-16T22:46:30;-8.50;99.90
44833;DHT22;30569;51.252;9.830;2022-12-16T22:51:59;-8.40;99.90
44833;DHT22;30569;51.252;9.830;2022-12-16T22:57:30;-8.40;99.90
44833;DHT22;30569;51.252;9.830;2022-12-16T23:00:17;-8.70;99.90
44833;DHT22;30569;51.252;9.830;2022-12-16T23:03:02;-8.40;99.90
44833;DHT22;30569;51.252;9.830;2022-12-16T23:05:46;-8.60;99.90
44833;DHT22;30569;51.252;9.830;2022-12-16T23:08:30;-8.10;99.90
44833;DHT22;30569;51.252;9.830;2022-12-16T23:11:17;-8.90;99.90
44833;DHT22;30569;51.252;9.830;2022-12-16T23:19:31;-7.50;99.90
44833;DHT22;30569;51.252;9.830;2022-12-16T23:25:00;-7.70;99.90
44833;DHT22;30569;51.252;9.830;2022-12-16T23:27:44;-7.40;99.90
44833;DHT22;30569;51.252;9.830;2022-12-16T23:30:28;-7.40;99.90
44833;DHT22;30569;51.252;9.830;2022-12-16T23:33:12;-7.50;99.90
44833;DHT22;30569;51.252;9.830;2022-12-16T23:35:56;-7.30;99.90
44833;DHT22;30569;51.252;9.830;2022-12-16T23:38:41;-7.30;99.90
44833;DHT22;30569;51.252;9.830;2022-12-16T23:41:25;-7.30;99.90
44833;DHT22;30569;51.252;9.830;2022-12-16T23:44:09;-6.80;99.90
44833;DHT22;30569;51.252;9.830;2022-12-16T23:46:53;-7.00;99.90
44833;DHT22;30569;51.252;9.830;2022-12-16T23:49:37;-7.20;99.90
44833;DHT22;30569;51.252;9.830;2022-12-16T23:52:21;-7.10;99.90
44833;DHT22;30569;51.252;9.830;2022-12-16T23:58:02;-7.10;99.90
